Aviation Digital Data Service (ADDS)

Output produced by METARs form (1135 UTC 27 July 2016)
found at http://aviationweather.gov/adds/metars/
 
KCON 271122Z 2712/2812 00000KT P6SM SKC 
     FM271700 27006KT P6SM FEW050 
     FM280000 00000KT P6SM SKC 
     FM280600 00000KT 6SM BR SKC 
     FM280800 00000KT 4SM BR SKC